sensor_id;sensor_type;location;lat;lon;timestamp;temperature;humidity
29211;DHT22;16250;49.932;10.980;2022-08-04T00:00:59;22.80;95.60
29211;DHT22;16250;49.932;10.980;2022-08-04T00:03:29;22.80;95.40
29211;DHT22;16250;49.932;10.980;2022-08-04T00:06:13;22.70;95.50
29211;DHT22;16250;49.932;10.980;2022-08-04T00:12:06;22.60;95.70
29211;DHT22;16250;49.932;10.980;2022-08-04T00:14:38;22.70;95.70
29211;DHT22;16250;49.932;10.980;2022-08-04T00:17:06;22.50;95.80
29211;DHT22;16250;49.932;10.980;2022-08-04T00:19:39;22.50;95.90
29211;DHT22;16250;49.932;10.980;2022-08-04T00:22:08;22.50;95.70
29211;DHT22;16250;49.932;10.980;2022-08-04T00:24:35;22.60;96.00
29211;DHT22;16250;49.932;10.980;2022-08-04T00:27:01;22.60;96.30
29211;DHT22;16250;49.932;10.980;2022-08-04T00:29:28;22.30;95.90
29211;DHT22;16250;49.932;10.980;2022-08-04T00:31:56;22.60;96.20
29211;DHT22;16250;49.932;10.980;2022-08-04T00:34:26;22.60;96.00
29211;DHT22;16250;49.932;10.980;2022-08-04T00:36:53;22.60;95.80
29211;DHT22;16250;49.932;10.980;2022-08-04T00:39:20;22.70;95.70
29211;DHT22;16250;49.932;10.980;2022-08-04T00:41:51;22.80;95.70
29211;DHT22;16250;49.932;10.980;2022-08-04T00:55:43;22.60;96.70
29211;DHT22;16250;49.932;10.980;2022-08-04T00:58:49;22.30;97.40
29211;DHT22;16250;49.932;10.980;2022-08-04T01:07:08;22.00;98.40
29211;DHT22;16250;49.932;10.980;2022-08-04T01:10:02;21.90;98.80
29211;DHT22;16250;49.932;10.980;2022-08-04T01:12:58;21.80;98.90
29211;DHT22;16250;49.932;10.980;2022-08-04T01:15:38;21.80;99.20
29211;DHT22;16250;49.932;10.980;2022-08-04T01:18:06;21.70;99.70
29211;DHT22;16250;49.932;10.980;2022-08-04T01:20:35;21.50;99.90
29211;DHT22;16250;49.932;10.980;2022-08-04T01:26:05;21.40;99.90
29211;DHT22;16250;49.932;10.980;2022-08-04T01:34:04;21.40;99.90
29211;DHT22;16250;49.932;10.980;2022-08-04T01:36:33;21.30;99.90
29211;DHT22;16250;49.932;10.980;2022-08-04T01:39:02;21.40;99.90
29211;DHT22;16250;49.932;10.980;2022-08-04T01:41:54;21.20;99.90
29211;DHT22;16250;49.932;10.980;2022-08-04T01:44:20;21.20;99.90
29211;DHT22;16250;49.932;10.980;2022-08-04T01:46:49;21.10;99.90
29211;DHT22;16250;49.932;10.980;2022-08-04T01:49:16;21.50;99.90
29211;DHT22;16250;49.932;10.980;2022-08-04T01:51:44;21.30;99.90
29211;DHT22;16250;49.932;10.980;2022-08-04T01:54:11;21.10;99.90
29211;DHT22;16250;49.932;10.980;2022-08-04T01:56:41;20.80;99.90
29211;DHT22;16250;49.932;10.980;2022-08-04T01:59:08;20.70;99.90
29211;DHT22;16250;49.932;10.980;2022-08-04T02:01:35;21.20;99.90
29211;DHT22;16250;49.932;10.980;2022-08-04T02:04:01;20.90;99.90
29211;DHT22;16250;49.932;10.980;2022-08-04T02:06:51;20.70;99.90
29211;DHT22;16250;49.932;10.980;2022-08-04T02:09:45;20.70;99.90
29211;DHT22;16250;49.932;10.980;2022-08-04T02:15:18;20.70;99.90
29211;DHT22;16250;49.932;10.980;2022-08-04T02:18:08;20.80;99.90
29211;DHT22;16250;49.932;10.980;2022-08-04T02:20:39;20.80;99.90
29211;DHT22;16250;49.932;10.980;2022-08-04T02:23:12;20.80;99.90
29211;DHT22;16250;49.932;10.980;2022-08-04T02:25:45;20.80;99.90
29211;DHT22;16250;49.932;10.980;2022-08-04T02:30:49;20.80;99.90
29211;DHT22;16250;49.932;10.980;2022-08-04T02:33:22;21.20;99.90
29211;DHT22;16250;49.932;10.980;2022-08-04T02:35:54;20.80;99.90
29211;DHT22;16250;49.932;10.980;2022-08-04T02:38:30;21.00;99.90
29211;DHT22;16250;49.932;10.980;2022-08-04T02:40:59;20.50;99.90
29211;DHT22;16250;49.932;10.980;2022-08-04T02:43:27;20.80;99.90
29211;DHT22;16250;49.932;10.980;2022-08-04T02:45:55;20.90;99.90
29211;DHT22;16250;49.932;10.980;2022-08-04T02:48:26;20.90;99.90
29211;DHT22;16250;49.932;10.980;2022-08-04T02:50:53;20.90;99.90
29211;DHT22;16250;49.932;10.980;2022-08-04T02:53:21;20.70;99.90
29211;DHT22;16250;49.932;10.980;2022-08-04T02:55:48;20.70;99.90
29211;DHT22;16250;49.932;10.980;2022-08-04T02:58:19;20.80;99.90
29211;DHT22;16250;49.932;10.980;2022-08-04T03:00:45;20.80;99.90
29211;DHT22;16250;49.932;10.980;2022-08-04T03:03:22;20.60;99.90
29211;DHT22;16250;49.932;10.980;2022-08-04T03:17:33;20.70;99.90
29211;DHT22;16250;49.932;10.980;2022-08-04T03:20:27;20.80;99.90
29211;DHT22;16250;49.932;10.980;2022-08-04T03:28:35;20.50;99.90
29211;DHT22;16250;49.932;10.980;2022-08-04T03:31:40;20.20;99.90
29211;DHT22;16250;49.932;10.980;2022-08-04T03:34:51;20.30;99.90
29211;DHT22;16250;49.932;10.980;2022-08-04T03:51:29;20.10;99.90
29211;DHT22;16250;49.932;10.980;2022-08-04T03:54:57;20.20;99.90
29211;DHT22;16250;49.932;10.980;2022-08-04T03:57:43;19.90;99.90
29211;DHT22;16250;49.932;10.980;2022-08-04T04:00:16;19.90;99.90
29211;DHT22;16250;49.932;10.980;2022-08-04T04:06:11;20.10;99.90
29211;DHT22;16250;49.932;10.980;2022-08-04T04:08:57;20.30;99.90
29211;DHT22;16250;49.932;10.980;2022-08-04T04:12:00;20.40;99.90
29211;DHT22;16250;49.932;10.980;2022-08-04T04:14:54;20.30;99.90
29211;DHT22;16250;49.932;10.980;2022-08-04T04:28:43;20.10;99.90
29211;DHT22;16250;49.932;10.980;2022-08-04T04:48:11;20.80;99.90
29211;DHT22;16250;49.932;10.980;2022-08-04T04:56:07;20.70;99.90
29211;DHT22;16250;49.932;10.980;2022-08-04T04:58:37;20.60;99.90
29211;DHT22;16250;49.932;10.980;2022-08-04T05:04:28;20.80;99.90
29211;DHT22;16250;49.932;10.980;2022-08-04T05:10:21;21.10;99.90
29211;DHT22;16250;49.932;10.980;2022-08-04T05:14:57;21.30;99.90
29211;DHT22;16250;49.932;10.980;2022-08-04T05:17:34;21.30;99.90
29211;DHT22;16250;49.932;10.980;2022-08-04T05:20:06;21.30;99.90
29211;DHT22;16250;49.932;10.980;2022-08-04T05:22:46;21.30;99.90
29211;DHT22;16250;49.932;10.980;2022-08-04T05:25:28;21.50;99.90
29211;DHT22;16250;49.932;10.980;2022-08-04T05:31:04;21.80;99.90
29211;DHT22;16250;49.932;10.980;2022-08-04T05:33:33;21.80;99.90
29211;DHT22;16250;49.932;10.980;2022-08-04T05:36:05;22.00;99.90
29211;DHT22;16250;49.932;10.980;2022-08-04T05:38:38;22.00;99.90
29211;DHT22;16250;49.932;10.980;2022-08-04T05:41:07;22.00;99.90
29211;DHT22;16250;49.932;10.980;2022-08-04T05:43:34;22.10;99.90
29211;DHT22;16250;49.932;10.980;2022-08-04T05:46:00;22.10;99.90
29211;DHT22;16250;49.932;10.980;2022-08-04T05:48:27;22.30;99.90
29211;DHT22;16250;49.932;10.980;2022-08-04T05:50:54;22.50;99.90
29211;DHT22;16250;49.932;10.980;2022-08-04T05:53:21;22.50;99.90
29211;DHT22;16250;49.932;10.980;2022-08-04T05:55:48;22.70;99.90
29211;DHT22;16250;49.932;10.980;2022-08-04T05:58:14;22.80;99.90
29211;DHT22;16250;49.932;10.980;2022-08-04T06:00:42;23.00;99.90
29211;DHT22;16250;49.932;10.980;2022-08-04T06:03:09;23.10;99.90
29211;DHT22;16250;49.932;10.980;2022-08-04T06:05:36;23.20;99.90
29211;DHT22;16250;49.932;10.980;2022-08-04T06:08:03;23.30;99.90
29211;DHT22;16250;49.932;10.980;2022-08-04T06:10:30;23.40;99.90
29211;DHT22;16250;49.932;10.980;2022-08-04T06:13:04;23.40;99.90
29211;DHT22;16250;49.932;10.980;2022-08-04T06:15:31;23.40;99.90
29211;DHT22;16250;49.932;10.980;2022-08-04T06:18:02;23.60;99.90
29211;DHT22;16250;49.932;10.980;2022-08-04T06:20:31;23.60;99.90
29211;DHT22;16250;49.932;10.980;2022-08-04T06:23:02;23.80;99.90
29211;DHT22;16250;49.932;10.980;2022-08-04T06:25:31;23.90;99.90
29211;DHT22;16250;49.932;10.980;2022-08-04T06:27:57;23.90;99.90
29211;DHT22;16250;49.932;10.980;2022-08-04T06:30:29;24.00;99.90
29211;DHT22;16250;49.932;10.980;2022-08-04T06:32:55;24.20;99.90
29211;DHT22;16250;49.932;10.980;2022-08-04T06:35:24;24.30;99.90
29211;DHT22;16250;49.932;10.980;2022-08-04T06:37:51;24.50;99.90
29211;DHT22;16250;49.932;10.980;2022-08-04T06:40:19;24.70;99.90
29211;DHT22;16250;49.932;10.980;2022-08-04T06:42:47;24.90;99.90
29211;DHT22;16250;49.932;10.980;2022-08-04T06:45:13;24.80;99.90
29211;DHT22;16250;49.932;10.980;2022-08-04T06:47:41;24.90;99.90
29211;DHT22;16250;49.932;10.980;2022-08-04T06:50:09;24.90;99.90
29211;DHT22;16250;49.932;10.980;2022-08-04T06:52:36;24.90;99.90
29211;DHT22;16250;49.932;10.980;2022-08-04T06:55:02;25.00;99.90
29211;DHT22;16250;49.932;10.980;2022-08-04T06:57:29;25.10;99.90
29211;DHT22;16250;49.932;10.980;2022-08-04T07:00:07;25.20;99.90
29211;DHT22;16250;49.932;10.980;2022-08-04T07:02:43;25.30;99.90
29211;DHT22;16250;49.932;10.980;2022-08-04T07:05:09;25.50;99.90
29211;DHT22;16250;49.932;10.980;2022-08-04T07:07:36;25.70;99.90
29211;DHT22;16250;49.932;10.980;2022-08-04T07:10:03;25.70;99.90
29211;DHT22;16250;49.932;10.980;2022-08-04T07:12:29;25.90;99.90
29211;DHT22;16250;49.932;10.980;2022-08-04T07:14:56;26.00;99.90
29211;DHT22;16250;49.932;10.980;2022-08-04T07:17:23;26.10;99.90
29211;DHT22;16250;49.932;10.980;2022-08-04T07:19:49;26.20;99.90
29211;DHT22;16250;49.932;10.980;2022-08-04T07:22:17;26.30;99.90
29211;DHT22;16250;49.932;10.980;2022-08-04T07:24:44;26.50;99.90
29211;DHT22;16250;49.932;10.980;2022-08-04T07:27:09;26.70;99.90
29211;DHT22;16250;49.932;10.980;2022-08-04T07:29:35;26.70;99.90
29211;DHT22;16250;49.932;10.980;2022-08-04T07:32:02;26.90;99.90
29211;DHT22;16250;49.932;10.980;2022-08-04T07:34:28;27.10;99.40
29211;DHT22;16250;49.932;10.980;2022-08-04T07:36:56;27.40;98.70
29211;DHT22;16250;49.932;10.980;2022-08-04T07:39:28;27.60;98.20
29211;DHT22;16250;49.932;10.980;2022-08-04T07:41:58;27.70;97.10
29211;DHT22;16250;49.932;10.980;2022-08-04T07:44:24;27.90;96.30
29211;DHT22;16250;49.932;10.980;2022-08-04T07:46:49;28.10;96.10
29211;DHT22;16250;49.932;10.980;2022-08-04T07:49:15;28.00;95.60
29211;DHT22;16250;49.932;10.980;2022-08-04T07:51:42;28.10;95.90
29211;DHT22;16250;49.932;10.980;2022-08-04T07:54:08;28.10;94.90
29211;DHT22;16250;49.932;10.980;2022-08-04T07:56:37;28.30;95.20
29211;DHT22;16250;49.932;10.980;2022-08-04T07:59:04;28.40;95.10
29211;DHT22;16250;49.932;10.980;2022-08-04T08:01:30;28.50;94.10
29211;DHT22;16250;49.932;10.980;2022-08-04T08:03:57;28.60;94.00
29211;DHT22;16250;49.932;10.980;2022-08-04T08:06:25;29.10;93.30
29211;DHT22;16250;49.932;10.980;2022-08-04T08:08:53;28.70;93.30
29211;DHT22;16250;49.932;10.980;2022-08-04T08:11:19;29.00;93.30
29211;DHT22;16250;49.932;10.980;2022-08-04T08:13:45;29.00;93.10
29211;DHT22;16250;49.932;10.980;2022-08-04T08:16:12;29.10;92.90
29211;DHT22;16250;49.932;10.980;2022-08-04T08:18:37;29.10;92.50
29211;DHT22;16250;49.932;10.980;2022-08-04T08:21:03;29.10;92.40
29211;DHT22;16250;49.932;10.980;2022-08-04T08:23:30;29.20;92.70
29211;DHT22;16250;49.932;10.980;2022-08-04T08:25:57;29.30;91.90
29211;DHT22;16250;49.932;10.980;2022-08-04T08:28:23;29.50;92.10
29211;DHT22;16250;49.932;10.980;2022-08-04T08:30:49;29.60;91.30
29211;DHT22;16250;49.932;10.980;2022-08-04T08:33:15;29.50;91.50
29211;DHT22;16250;49.932;10.980;2022-08-04T08:36:02;29.60;91.20
29211;DHT22;16250;49.932;10.980;2022-08-04T08:47:08;30.20;91.00
29211;DHT22;16250;49.932;10.980;2022-08-04T08:49:45;30.20;90.50
29211;DHT22;16250;49.932;10.980;2022-08-04T08:58:02;30.50;90.70
29211;DHT22;16250;49.932;10.980;2022-08-04T09:03:37;30.70;90.40
29211;DHT22;16250;49.932;10.980;2022-08-04T09:09:36;30.90;90.50
29211;DHT22;16250;49.932;10.980;2022-08-04T09:12:27;31.00;90.50
29211;DHT22;16250;49.932;10.980;2022-08-04T09:17:41;31.00;89.90
29211;DHT22;16250;49.932;10.980;2022-08-04T09:20:24;31.40;90.30
29211;DHT22;16250;49.932;10.980;2022-08-04T09:22:56;31.50;90.40
29211;DHT22;16250;49.932;10.980;2022-08-04T09:25:30;31.50;90.10
29211;DHT22;16250;49.932;10.980;2022-08-04T09:28:03;31.80;90.00
29211;DHT22;16250;49.932;10.980;2022-08-04T09:30:55;31.40;89.30
29211;DHT22;16250;49.932;10.980;2022-08-04T09:35:56;31.80;90.00
29211;DHT22;16250;49.932;10.980;2022-08-04T09:44:12;31.90;88.60
29211;DHT22;16250;49.932;10.980;2022-08-04T09:46:44;32.10;88.00
29211;DHT22;16250;49.932;10.980;2022-08-04T09:49:18;31.90;89.40
29211;DHT22;16250;49.932;10.980;2022-08-04T09:55:37;32.10;88.80
29211;DHT22;16250;49.932;10.980;2022-08-04T10:00:49;32.30;89.00
29211;DHT22;16250;49.932;10.980;2022-08-04T10:03:16;32.50;87.70
29211;DHT22;16250;49.932;10.980;2022-08-04T10:06:13;32.50;87.40
29211;DHT22;16250;49.932;10.980;2022-08-04T10:08:53;32.50;87.70
29211;DHT22;16250;49.932;10.980;2022-08-04T10:17:30;32.90;87.90
29211;DHT22;16250;49.932;10.980;2022-08-04T10:20:28;32.60;86.90
29211;DHT22;16250;49.932;10.980;2022-08-04T10:26:02;32.50;87.60
29211;DHT22;16250;49.932;10.980;2022-08-04T10:28:32;32.80;86.30
29211;DHT22;16250;49.932;10.980;2022-08-04T10:31:06;32.70;85.80
29211;DHT22;16250;49.932;10.980;2022-08-04T10:33:51;33.00;85.60
29211;DHT22;16250;49.932;10.980;2022-08-04T10:36:22;33.20;86.20
29211;DHT22;16250;49.932;10.980;2022-08-04T10:39:00;33.20;85.70
29211;DHT22;16250;49.932;10.980;2022-08-04T10:41:46;33.40;85.90
29211;DHT22;16250;49.932;10.980;2022-08-04T10:44:27;33.60;85.70
29211;DHT22;16250;49.932;10.980;2022-08-04T10:47:31;33.60;83.00
29211;DHT22;16250;49.932;10.980;2022-08-04T10:50:02;33.50;83.90
29211;DHT22;16250;49.932;10.980;2022-08-04T11:00:14;33.70;82.70
29211;DHT22;16250;49.932;10.980;2022-08-04T11:02:57;33.60;83.70
29211;DHT22;16250;49.932;10.980;2022-08-04T11:08:35;33.80;82.10
29211;DHT22;16250;49.932;10.980;2022-08-04T11:13:39;34.20;81.30
29211;DHT22;16250;49.932;10.980;2022-08-04T11:16:15;34.40;80.80
29211;DHT22;16250;49.932;10.980;2022-08-04T11:21:33;34.60;80.00
29211;DHT22;16250;49.932;10.980;2022-08-04T11:24:11;34.40;79.50
29211;DHT22;16250;49.932;10.980;2022-08-04T11:27:04;34.10;79.40
29211;DHT22;16250;49.932;10.980;2022-08-04T11:29:39;34.00;80.80
29211;DHT22;16250;49.932;10.980;2022-08-04T11:32:07;34.50;80.30
29211;DHT22;16250;49.932;10.980;2022-08-04T11:34:35;34.80;80.70
29211;DHT22;16250;49.932;10.980;2022-08-04T11:39:42;35.00;79.10
29211;DHT22;16250;49.932;10.980;2022-08-04T11:42:27;34.60;79.20
29211;DHT22;16250;49.932;10.980;2022-08-04T11:45:05;34.10;80.50
29211;DHT22;16250;49.932;10.980;2022-08-04T11:47:56;34.90;79.70
29211;DHT22;16250;49.932;10.980;2022-08-04T11:50:33;35.30;78.70
29211;DHT22;16250;49.932;10.980;2022-08-04T11:53:03;35.70;78.90
29211;DHT22;16250;49.932;10.980;2022-08-04T11:55:30;35.30;78.00
29211;DHT22;16250;49.932;10.980;2022-08-04T11:57:56;35.40;78.40
29211;DHT22;16250;49.932;10.980;2022-08-04T12:00:24;35.20;78.10
29211;DHT22;16250;49.932;10.980;2022-08-04T12:05:40;35.60;76.50
29211;DHT22;16250;49.932;10.980;2022-08-04T12:11:12;35.40;77.30
29211;DHT22;16250;49.932;10.980;2022-08-04T12:14:08;34.90;77.10
29211;DHT22;16250;49.932;10.980;2022-08-04T12:16:51;35.20;75.70
29211;DHT22;16250;49.932;10.980;2022-08-04T12:19:28;34.80;75.50
29211;DHT22;16250;49.932;10.980;2022-08-04T12:21:57;34.90;75.70
29211;DHT22;16250;49.932;10.980;2022-08-04T12:24:33;35.30;76.10
29211;DHT22;16250;49.932;10.980;2022-08-04T12:27:20;35.90;76.40
29211;DHT22;16250;49.932;10.980;2022-08-04T12:29:48;36.50;75.80
29211;DHT22;16250;49.932;10.980;2022-08-04T12:32:30;35.90;75.40
29211;DHT22;16250;49.932;10.980;2022-08-04T12:35:12;35.10;76.60
29211;DHT22;16250;49.932;10.980;2022-08-04T12:38:06;36.20;75.40
29211;DHT22;16250;49.932;10.980;2022-08-04T12:40:47;36.30;74.60
29211;DHT22;16250;49.932;10.980;2022-08-04T12:43:27;37.20;74.60
29211;DHT22;16250;49.932;10.980;2022-08-04T12:46:02;36.90;74.20
29211;DHT22;16250;49.932;10.980;2022-08-04T12:48:28;36.70;74.60
29211;DHT22;16250;49.932;10.980;2022-08-04T12:50:56;37.30;73.50
29211;DHT22;16250;49.932;10.980;2022-08-04T12:53:25;37.20;72.50
29211;DHT22;16250;49.932;10.980;2022-08-04T12:55:53;37.60;73.50
29211;DHT22;16250;49.932;10.980;2022-08-04T12:58:22;37.20;72.90
29211;DHT22;16250;49.932;10.980;2022-08-04T13:00:56;36.20;73.50
29211;DHT22;16250;49.932;10.980;2022-08-04T13:03:35;36.80;73.30
29211;DHT22;16250;49.932;10.980;2022-08-04T13:06:03;37.40;74.20
29211;DHT22;16250;49.932;10.980;2022-08-04T13:08:34;38.10;72.10
29211;DHT22;16250;49.932;10.980;2022-08-04T13:11:02;38.30;71.90
29211;DHT22;16250;49.932;10.980;2022-08-04T13:13:32;38.00;71.70
29211;DHT22;16250;49.932;10.980;2022-08-04T13:16:10;37.40;71.50
29211;DHT22;16250;49.932;10.980;2022-08-04T13:18:38;36.50;72.50
29211;DHT22;16250;49.932;10.980;2022-08-04T13:23:41;38.60;71.50
29211;DHT22;16250;49.932;10.980;2022-08-04T13:26:07;38.90;70.70
29211;DHT22;16250;49.932;10.980;2022-08-04T13:28:33;39.30;69.70
29211;DHT22;16250;49.932;10.980;2022-08-04T13:31:06;39.70;69.20
29211;DHT22;16250;49.932;10.980;2022-08-04T13:33:35;39.50;69.60
29211;DHT22;16250;49.932;10.980;2022-08-04T13:36:03;38.90;70.00
29211;DHT22;16250;49.932;10.980;2022-08-04T13:38:30;39.70;68.80
29211;DHT22;16250;49.932;10.980;2022-08-04T13:41:00;39.60;69.90
29211;DHT22;16250;49.932;10.980;2022-08-04T13:43:29;40.10;68.60
29211;DHT22;16250;49.932;10.980;2022-08-04T13:46:00;39.30;69.00
29211;DHT22;16250;49.932;10.980;2022-08-04T13:48:39;38.50;68.80
29211;DHT22;16250;49.932;10.980;2022-08-04T13:51:07;38.90;68.90
29211;DHT22;16250;49.932;10.980;2022-08-04T13:53:34;38.90;69.10
29211;DHT22;16250;49.932;10.980;2022-08-04T13:56:03;38.50;68.90
29211;DHT22;16250;49.932;10.980;2022-08-04T13:58:32;40.20;68.20
29211;DHT22;16250;49.932;10.980;2022-08-04T14:01:09;38.70;68.10
29211;DHT22;16250;49.932;10.980;2022-08-04T14:03:39;40.40;68.20
29211;DHT22;16250;49.932;10.980;2022-08-04T14:06:12;39.10;67.40
29211;DHT22;16250;49.932;10.980;2022-08-04T14:08:50;39.60;67.20
29211;DHT22;16250;49.932;10.980;2022-08-04T14:11:17;39.50;67.70
29211;DHT22;16250;49.932;10.980;2022-08-04T14:13:43;41.00;67.50
29211;DHT22;16250;49.932;10.980;2022-08-04T14:16:14;41.70;66.60
29211;DHT22;16250;49.932;10.980;2022-08-04T14:18:39;42.40;65.50
29211;DHT22;16250;49.932;10.980;2022-08-04T14:21:11;42.50;64.60
29211;DHT22;16250;49.932;10.980;2022-08-04T14:26:34;42.40;65.50
29211;DHT22;16250;49.932;10.980;2022-08-04T14:29:15;42.90;64.60
29211;DHT22;16250;49.932;10.980;2022-08-04T14:31:41;43.00;64.60
29211;DHT22;16250;49.932;10.980;2022-08-04T14:34:07;43.30;63.30
29211;DHT22;16250;49.932;10.980;2022-08-04T14:36:42;43.00;63.00
29211;DHT22;16250;49.932;10.980;2022-08-04T14:39:08;43.80;63.20
29211;DHT22;16250;49.932;10.980;2022-08-04T14:41:49;43.80;62.50
29211;DHT22;16250;49.932;10.980;2022-08-04T14:44:15;43.80;62.10
29211;DHT22;16250;49.932;10.980;2022-08-04T14:46:52;44.20;61.70
29211;DHT22;16250;49.932;10.980;2022-08-04T14:49:18;42.60;63.10
29211;DHT22;16250;49.932;10.980;2022-08-04T14:51:58;43.80;61.90
29211;DHT22;16250;49.932;10.980;2022-08-04T14:54:31;45.00;61.40
29211;DHT22;16250;49.932;10.980;2022-08-04T14:57:03;44.60;61.60
29211;DHT22;16250;49.932;10.980;2022-08-04T14:59:48;44.80;60.80
29211;DHT22;16250;49.932;10.980;2022-08-04T15:02:15;44.10;61.90
29211;DHT22;16250;49.932;10.980;2022-08-04T15:04:42;44.80;60.90
29211;DHT22;16250;49.932;10.980;2022-08-04T15:07:09;45.70;60.00
29211;DHT22;16250;49.932;10.980;2022-08-04T15:09:35;45.30;59.50
29211;DHT22;16250;49.932;10.980;2022-08-04T15:12:02;44.60;59.80
29211;DHT22;16250;49.932;10.980;2022-08-04T15:14:29;43.90;59.90
29211;DHT22;16250;49.932;10.980;2022-08-04T15:16:56;42.00;59.40
29211;DHT22;16250;49.932;10.980;2022-08-04T15:19:22;42.70;59.60
29211;DHT22;16250;49.932;10.980;2022-08-04T15:21:48;42.10;59.80
29211;DHT22;16250;49.932;10.980;2022-08-04T15:24:14;42.60;59.40
29211;DHT22;16250;49.932;10.980;2022-08-04T15:26:47;44.10;58.40
29211;DHT22;16250;49.932;10.980;2022-08-04T15:29:17;44.10;58.70
29211;DHT22;16250;49.932;10.980;2022-08-04T15:31:45;44.20;58.80
29211;DHT22;16250;49.932;10.980;2022-08-04T15:34:11;44.90;58.40
29211;DHT22;16250;49.932;10.980;2022-08-04T15:36:52;44.40;58.10
29211;DHT22;16250;49.932;10.980;2022-08-04T15:42:14;45.70;57.60
29211;DHT22;16250;49.932;10.980;2022-08-04T15:45:19;44.60;58.00
29211;DHT22;16250;49.932;10.980;2022-08-04T15:58:51;45.40;57.20
29211;DHT22;16250;49.932;10.980;2022-08-04T16:01:17;45.80;56.70
29211;DHT22;16250;49.932;10.980;2022-08-04T16:03:50;45.40;56.20
29211;DHT22;16250;49.932;10.980;2022-08-04T16:16:30;42.90;57.90
29211;DHT22;16250;49.932;10.980;2022-08-04T16:19:47;42.60;57.80
29211;DHT22;16250;49.932;10.980;2022-08-04T16:22:36;41.30;58.80
29211;DHT22;16250;49.932;10.980;2022-08-04T16:25:04;42.30;57.50
29211;DHT22;16250;49.932;10.980;2022-08-04T16:27:40;41.20;58.70
29211;DHT22;16250;49.932;10.980;2022-08-04T16:30:12;40.40;58.80
29211;DHT22;16250;49.932;10.980;2022-08-04T16:32:43;40.70;58.20
29211;DHT22;16250;49.932;10.980;2022-08-04T16:35:24;41.20;58.80
29211;DHT22;16250;49.932;10.980;2022-08-04T16:38:14;40.30;58.90
29211;DHT22;16250;49.932;10.980;2022-08-04T16:40:41;40.90;59.40
29211;DHT22;16250;49.932;10.980;2022-08-04T16:43:17;41.50;59.50
29211;DHT22;16250;49.932;10.980;2022-08-04T16:48:11;40.30;58.80
29211;DHT22;16250;49.932;10.980;2022-08-04T16:50:50;39.50;59.50
29211;DHT22;16250;49.932;10.980;2022-08-04T16:53:18;38.90;60.30
29211;DHT22;16250;49.932;10.980;2022-08-04T16:55:48;38.40;59.60
29211;DHT22;16250;49.932;10.980;2022-08-04T16:58:15;38.90;59.30
29211;DHT22;16250;49.932;10.980;2022-08-04T17:00:43;39.30;59.40
29211;DHT22;16250;49.932;10.980;2022-08-04T17:03:09;38.60;59.80
29211;DHT22;16250;49.932;10.980;2022-08-04T17:05:36;37.50;60.80
29211;DHT22;16250;49.932;10.980;2022-08-04T17:08:03;37.30;61.20
29211;DHT22;16250;49.932;10.980;2022-08-04T17:10:34;37.20;61.30
29211;DHT22;16250;49.932;10.980;2022-08-04T17:13:01;36.80;61.90
29211;DHT22;16250;49.932;10.980;2022-08-04T17:15:27;36.60;61.10
29211;DHT22;16250;49.932;10.980;2022-08-04T17:18:13;36.20;62.00
29211;DHT22;16250;49.932;10.980;2022-08-04T17:20:40;36.30;62.10
29211;DHT22;16250;49.932;10.980;2022-08-04T17:26:10;36.10;62.30
29211;DHT22;16250;49.932;10.980;2022-08-04T17:28:38;35.70;63.20
29211;DHT22;16250;49.932;10.980;2022-08-04T17:31:05;35.70;63.60
29211;DHT22;16250;49.932;10.980;2022-08-04T17:33:31;35.50;63.80
29211;DHT22;16250;49.932;10.980;2022-08-04T17:35:58;35.40;63.20
29211;DHT22;16250;49.932;10.980;2022-08-04T17:38:34;35.50;63.20
29211;DHT22;16250;49.932;10.980;2022-08-04T17:41:04;35.30;63.80
29211;DHT22;16250;49.932;10.980;2022-08-04T17:43:45;35.20;64.20
29211;DHT22;16250;49.932;10.980;2022-08-04T17:46:37;35.20;64.20
29211;DHT22;16250;49.932;10.980;2022-08-04T17:51:53;34.90;64.90
29211;DHT22;16250;49.932;10.980;2022-08-04T17:56:56;34.80;65.20
29211;DHT22;16250;49.932;10.980;2022-08-04T17:59:25;34.60;65.70
29211;DHT22;16250;49.932;10.980;2022-08-04T18:07:03;34.20;67.20
29211;DHT22;16250;49.932;10.980;2022-08-04T18:09:39;34.10;67.30
29211;DHT22;16250;49.932;10.980;2022-08-04T18:12:20;33.90;68.40
29211;DHT22;16250;49.932;10.980;2022-08-04T18:14:48;33.70;68.90
29211;DHT22;16250;49.932;10.980;2022-08-04T18:17:28;33.60;68.30
29211;DHT22;16250;49.932;10.980;2022-08-04T18:19:54;33.50;68.60
29211;DHT22;16250;49.932;10.980;2022-08-04T18:22:20;33.30;69.00
29211;DHT22;16250;49.932;10.980;2022-08-04T18:24:46;33.10;68.80
29211;DHT22;16250;49.932;10.980;2022-08-04T18:27:12;33.00;69.10
29211;DHT22;16250;49.932;10.980;2022-08-04T18:29:38;32.90;69.40
29211;DHT22;16250;49.932;10.980;2022-08-04T18:32:03;32.80;69.70
29211;DHT22;16250;49.932;10.980;2022-08-04T18:34:29;32.70;69.80
29211;DHT22;16250;49.932;10.980;2022-08-04T18:36:55;32.60;69.70
29211;DHT22;16250;49.932;10.980;2022-08-04T18:39:20;32.40;70.30
29211;DHT22;16250;49.932;10.980;2022-08-04T18:41:49;32.30;70.10
29211;DHT22;16250;49.932;10.980;2022-08-04T18:44:15;32.20;70.20
29211;DHT22;16250;49.932;10.980;2022-08-04T18:46:41;32.20;69.40
29211;DHT22;16250;49.932;10.980;2022-08-04T18:49:06;32.10;69.20
29211;DHT22;16250;49.932;10.980;2022-08-04T18:51:35;32.00;69.10
29211;DHT22;16250;49.932;10.980;2022-08-04T18:54:00;31.90;69.40
29211;DHT22;16250;49.932;10.980;2022-08-04T18:56:27;31.50;70.20
29211;DHT22;16250;49.932;10.980;2022-08-04T18:58:53;31.10;72.10
29211;DHT22;16250;49.932;10.980;2022-08-04T19:01:18;31.10;71.80
29211;DHT22;16250;49.932;10.980;2022-08-04T19:03:44;31.00;72.20
29211;DHT22;16250;49.932;10.980;2022-08-04T19:06:09;30.90;73.60
29211;DHT22;16250;49.932;10.980;2022-08-04T19:08:35;30.30;74.10
29211;DHT22;16250;49.932;10.980;2022-08-04T19:11:03;29.90;74.80
29211;DHT22;16250;49.932;10.980;2022-08-04T19:13:29;29.60;75.90
29211;DHT22;16250;49.932;10.980;2022-08-04T19:15:55;29.50;76.40
29211;DHT22;16250;49.932;10.980;2022-08-04T19:18:22;29.10;77.00
29211;DHT22;16250;49.932;10.980;2022-08-04T19:20:47;29.10;77.80
29211;DHT22;16250;49.932;10.980;2022-08-04T19:23:13;29.20;78.10
29211;DHT22;16250;49.932;10.980;2022-08-04T19:25:38;29.10;77.10
29211;DHT22;16250;49.932;10.980;2022-08-04T19:28:04;28.90;77.60
29211;DHT22;16250;49.932;10.980;2022-08-04T19:30:30;28.90;78.10
29211;DHT22;16250;49.932;10.980;2022-08-04T19:32:55;28.70;78.80
29211;DHT22;16250;49.932;10.980;2022-08-04T19:35:21;28.70;78.70
29211;DHT22;16250;49.932;10.980;2022-08-04T19:37:47;28.70;79.20